Old Town, Iowa
Current Conditions -  °F | °C
As of 2:53 AM on Saturday 22 Nov 2014 (Local Time) from KSPW Reporting Station
Moderate Fog Moderate Fog  
Wind Chill: 27°   Ceiling: 200
Heat Index: 35°   Visibility: 0.5mi
Dew Point: 34°   Wind: 10mph
Humidity: 96%   Direction: 210°SSW
Pressure: 29.87"   Gusts: NA
Location:  43.2989°N, 95.2104°W
Report Text: KSPW 220853Z AUTO 21009KT 1/2SM FG VV002 02/01 A2987 RMK AO2 SLP127 T00170011 56012 TSNO
Loading
Personal Weather Stations






























Interactive Weather Map New forecast layout! Learn more

10-Day Weather Forecast

Advertisements
Track Severe Weather on mobile